Flight Track Log - Related Links

Times and Time Zones

All times are in EDT time to prevent confusion due to time zone crossing. See the DAL2288 flight status page for this flight to view local times or setup timezone preferences in your user account.

Time Position Orientation Groundspeed Altitude Reporting Facility
EDT Latitude Longitude Course Direction KTS MPH feet Rate Location/Type
Mon 02:14:37 PM 33.6333 -84.4667 53° Northeast 168 193 2,800  Level Atlanta TRACON
Mon 02:15:37 PM 33.6167 -84.5333 253° West 236 272 4,500 2,350 Climbing Atlanta TRACON
Mon 02:16:37 PM 33.5667 -84.5833 220° Southwest 277 319 7,500 2,700 Climbing Atlanta TRACON
Mon 02:17:00 PM 33.7447 -83.9868 54° Northeast  Level FlightAware Approximate
Mon 02:17:37 PM 33.4833 -84.5833 180° South 301 346 9,900  Level Atlanta TRACON
Mon 02:18:00 PM 33.8183 -83.8641 54° Northeast  Level FlightAware Approximate
Mon 02:18:37 PM 33.4500 -84.4833 112° Southeast 323 372 10,500  Level Atlanta TRACON
Mon 02:19:00 PM 33.8956 -83.7447 48° Northeast  Level FlightAware Approximate
Mon 02:19:55 PM 33.4786 -84.3428 76° East 360 414 13,000  Level Atlanta Center
Mon 02:20:00 PM 33.9735 -83.6257 53° Northeast  Level FlightAware Approximate
Mon 02:20:55 PM 33.5603 -84.2606 40° Northeast 358 412 15,300  Level Atlanta Center
Mon 02:21:55 PM 33.6481 -84.1786 38° Northeast 381 438 17,800 2,250 Climbing Atlanta Center
Mon 02:22:55 PM 33.7358 -84.0914 40° Northeast 400 460 19,800 1,450 Climbing Atlanta Center
Mon 02:23:55 PM 33.8006 -83.9664 58° Northeast 416 479 20,700 1,000 Climbing Atlanta Center
Mon 02:24:55 PM 33.8692 -83.8336 58° Northeast 452 520 21,800 1,150 Climbing Atlanta Center
Mon 02:25:55 PM 33.9442 -83.6958 57° Northeast 480 552 23,000 2,050 Climbing Atlanta Center
Mon 02:26:55 PM 34.0272 -83.5625 53° Northeast 490 564 25,900 2,000 Climbing Atlanta Center
Mon 02:27:55 PM 34.1058 -83.4417 52° Northeast 477 549 27,000 900 Climbing Atlanta Center
Mon 02:28:55 PM 34.1844 -83.3081 55° Northeast 477 549 27,700 850 Climbing Atlanta Center
Mon 02:29:55 PM 34.2711 -83.1742 52° Northeast 488 562 28,700 1,140 Climbing Atlanta Center
Mon 02:30:56 PM 34.3456 -83.0525 53° Northeast 503 579 30,000 1,400 Climbing Atlanta Center
Mon 02:31:55 PM 34.4278 -82.9156 54° Northeast 508 585 31,500 1,462 Climbing Atlanta Center
Mon 02:32:55 PM 34.5100 -82.7858 52° Northeast 496 571 32,900 1,300 Climbing Atlanta Center
Mon 02:33:55 PM 34.5878 -82.6486 55° Northeast 491 565 34,100 1,050 Climbing Atlanta Center
Mon 02:34:55 PM 34.6739 -82.5233 50° Northeast 486 559 35,000 450 Climbing Atlanta Center
Mon 02:35:55 PM 34.7536 -82.3906 54° Northeast 481 554 35,000  Level Atlanta Center
Mon 02:36:55 PM 34.8333 -82.2597 53° Northeast 481 554 35,000  Level Atlanta Center
Mon 02:37:55 PM 34.9125 -82.1289 54° Northeast 481 554 35,000  Level Atlanta Center
Mon 02:38:55 PM 35.0019 -81.9797 54° Northeast 486 559 35,000  Level Atlanta Center
Mon 02:39:55 PM 35.0811 -81.8433 55° Northeast 486 559 35,000  Level Atlanta Center
Mon 02:40:55 PM 35.1536 -81.6992 58° Northeast 492 566 35,000  Level Atlanta Center
Mon 02:41:55 PM 35.2278 -81.5572 57° Northeast 492 566 35,000  Level Atlanta Center
Mon 02:42:55 PM 35.3000 -81.4175 58° Northeast 487 560 35,000  Level Atlanta Center
Mon 02:43:55 PM 35.3722 -81.2753 58° Northeast 492 566 35,000  Level Atlanta Center
Mon 02:44:55 PM 35.4458 -81.1300 58° Northeast 492 566 35,000  Level Atlanta Center
Mon 02:45:55 PM 35.5217 -80.9819 58° Northeast 508 585 35,000  Level Atlanta Center
Mon 02:46:55 PM 35.5972 -80.8411 57° Northeast 502 578 35,000  Level Atlanta Center
Mon 02:47:55 PM 35.6708 -80.7028 57° Northeast 495 570 35,000  Level Atlanta Center
Mon 02:48:55 PM 35.7461 -80.5589 57° Northeast 495 570 35,000  Level Atlanta Center
Mon 02:49:55 PM 35.8192 -80.4175 57° Northeast 495 570 35,000  Level Atlanta Center
Mon 02:52:00 PM 35.9103 -80.2314 59° Northeast  Level FlightAware Approximate
Mon 02:52:36 PM 36.0039 -80.0569 59° Northeast 497 572 35,000  Level Washington Center
Mon 02:53:34 PM 36.0800 -79.9147 56° Northeast 485 558 35,000  Level Washington Center
Mon 02:54:35 PM 36.1603 -79.7753 54° Northeast 490 564 35,000  Level Washington Center
Mon 02:55:36 PM 36.2469 -79.6200 55° Northeast 496 571 35,000  Level Washington Center
Mon 02:56:36 PM 36.3178 -79.4922 55° Northeast 496 571 35,000  Level Washington Center
Mon 02:57:34 PM 36.4000 -79.3389 56° Northeast 491 565 35,000  Level Washington Center
Mon 02:58:35 PM 36.4794 -79.2006 54° Northeast 491 565 35,000  Level Washington Center
Mon 02:59:36 PM 36.5539 -79.0775 53° Northeast 496 571 35,000  Level Washington Center
Mon 03:00:36 PM 36.6353 -78.9311 55° Northeast 496 571 35,000  Level Washington Center
Mon 03:01:34 PM 36.7081 -78.7839 58° Northeast 502 578 35,000  Level Washington Center
Mon 03:02:34 PM 36.7889 -78.6444 54° Northeast 502 578 35,000  Level Washington Center
Mon 03:03:34 PM 36.8656 -78.5022 56° Northeast 496 571 35,000 645 Level Washington Center
Mon 03:04:35 PM 36.9506 -78.3469 56° Northeast 491 565 36,300 992 Climbing Washington Center
Mon 03:05:35 PM 37.0389 -78.2225 48° Northeast 491 565 37,000 347 Climbing Washington Center
Mon 03:06:36 PM 37.1372 -78.1189 40° Northeast 469 540 37,000  Level Washington Center
Mon 03:07:34 PM 37.2394 -78.0075 41° Northeast 463 533 37,000  Level Washington Center
Mon 03:08:35 PM 37.3419 -77.8958 41° Northeast 476 548 37,000  Level Washington Center
Mon 03:09:36 PM 37.4442 -77.7786 42° Northeast 481 554 37,000  Level Washington Center
Mon 03:10:35 PM 37.5464 -77.6636 42° Northeast 481 554 37,000  Level Washington Center
Mon 03:11:36 PM 37.6483 -77.5483 42° Northeast 481 554 37,000  Level Washington Center
Mon 03:12:37 PM 37.7525 -77.4356 41° Northeast 486 559 37,000  Level Washington Center
Mon 03:13:34 PM 37.8542 -77.3197 42° Northeast 486 559 37,000  Level Washington Center
Mon 03:14:35 PM 37.9558 -77.2036 42° Northeast 486 559 37,000  Level Washington Center
Mon 03:15:36 PM 38.0575 -77.0897 41° Northeast 491 565 37,000  Level Washington Center
Mon 03:16:34 PM 38.1589 -76.9781 41° Northeast 491 565 37,000  Level Washington Center
Mon 03:17:34 PM 38.2583 -76.8636 42° Northeast 485 558 37,000  Level Washington Center
Mon 03:18:35 PM 38.3594 -76.7514 41° Northeast 485 558 37,000  Level Washington Center
Mon 03:19:35 PM 38.4586 -76.6336 43° Northeast 479 551 37,000  Level Washington Center
Mon 03:20:36 PM 38.5575 -76.5208 42° Northeast 479 551 37,000  Level Washington Center
Mon 03:21:34 PM 38.6583 -76.4025 42° Northeast 479 551 37,000  Level Washington Center
Mon 03:22:34 PM 38.7592 -76.2839 43° Northeast 479 551 37,000  Level Washington Center
Mon 03:23:36 PM 38.8578 -76.1728 41° Northeast 479 551 37,000  Level Washington Center
Mon 03:24:34 PM 38.9583 -76.0586 41° Northeast 479 551 37,000  Level Washington Center
Mon 03:25:35 PM 39.0586 -75.9392 43° Northeast 479 551 37,000  Level Washington Center
Mon 03:26:36 PM 39.1569 -75.8217 43° Northeast 479 551 37,000  Level Washington Center
Mon 03:27:36 PM 39.2572 -75.7069 42° Northeast 479 551 37,000  Level Washington Center
Mon 03:28:34 PM 39.3553 -75.5889 43° Northeast 479 551 37,000  Level Washington Center
Mon 03:29:35 PM 39.4550 -75.4678 43° Northeast 474 545 37,000  Level Washington Center
Mon 03:30:36 PM 39.5550 -75.3492 42° Northeast 474 545 37,000  Level Washington Center
Mon 03:32:55 PM 39.7742 -75.0817 43° Northeast 489 563 37,000  Level New York Center
Mon 03:33:55 PM 39.8744 -74.9633 42° Northeast 479 551 37,000  Level New York Center
Mon 03:34:55 PM 39.9750 -74.8258 46° Northeast 479 551 37,000  Level New York Center
Mon 03:35:56 PM 40.0628 -74.6981 48° Northeast 471 542 37,000  Level New York Center
Mon 03:36:54 PM 40.1486 -74.5617 51° Northeast 484 557 37,000  Level New York Center
Mon 03:37:54 PM 40.2383 -74.4253 49° Northeast 484 557 37,000 -98 Level New York Center
Mon 03:38:56 PM 40.3258 -74.2883 50° Northeast 484 557 36,800 -829 Descending New York Center
Mon 03:39:57 PM 40.4153 -74.1539 49° Northeast 484 557 35,300 -1,322 Descending New York Center
Mon 03:40:54 PM 40.5025 -74.0136 51° Northeast 489 563 34,200 -2,267 Descending New York Center
Mon 03:42:57 PM 40.6883 -73.7264 49° Northeast 514 592 28,500 -2,525 Descending Boston Center
Mon 03:43:57 PM 40.7628 -73.5936 53° Northeast 514 592 26,500 -2,100 Descending Boston Center
Mon 03:44:57 PM 40.8475 -73.4553 51° Northeast 502 578 24,300 -1,145 Descending Boston Center
Mon 03:46:08 PM 40.9486 -73.3167 46° Northeast 485 558 24,000 -182 Descending Boston Center
Mon 03:47:09 PM 41.0517 -73.1639 48° Northeast 468 539 23,900 -298 Descending Boston Center
Mon 03:48:09 PM 41.1400 -73.0328 48° Northeast 463 533 23,400 -450 Descending Boston Center
Mon 03:49:09 PM 41.2219 -72.8981 51° Northeast 463 533 23,000 -200 Descending Boston Center
Mon 03:50:09 PM 41.2828 -72.7606 59° Northeast 463 533 23,000  Level Boston Center
Mon 03:51:09 PM 41.3394 -72.6033 64° Northeast 463 533 23,000  Level Boston Center
Mon 03:52:09 PM 41.3875 -72.4456 68° East 463 533 23,000 -800 Level Boston Center
Mon 03:53:09 PM 41.4394 -72.2878 66° East 463 533 21,400 -1,900 Descending Boston Center
Mon 03:54:09 PM 41.4956 -72.1269 65° Northeast 449 517 19,200 -2,050 Descending Boston Center
Mon 03:55:09 PM 41.5431 -71.9936 65° Northeast 434 499 17,300 -2,000 Descending Boston Center
Mon 03:56:09 PM 41.5922 -71.8378 67° East 419 482 15,200 -1,900 Descending Boston Center
Mon 03:57:09 PM 41.6311 -71.7208 66° East 398 458 13,500 -1,800 Descending Boston Center
Mon 03:58:09 PM 41.6761 -71.5758 67° East 385 443 11,600 -1,200 Descending Boston Center
Mon 03:59:09 PM 41.7147 -71.4611 66° East 353 406 11,100 -300 Descending Boston Center
Mon 04:00:09 PM 41.7617 -71.3686 56° Northeast 314 361 11,000 -50 Descending Boston Center
Mon 04:01:09 PM 41.8214 -71.2894 45° Northeast 295 339 11,000 -600 Level Boston Center
Mon 04:02:09 PM 41.8894 -71.2297 33° Northeast 295 339 9,800 -1,550 Descending Boston Center
Mon 04:03:09 PM 41.9664 -71.1975 17° North 289 333 7,900 -1,650 Descending Boston Center
Mon 04:04:09 PM 42.0306 -71.1656 20° North 267 307 6,500 -1,650 Descending Boston Center
Mon 04:05:09 PM 42.0950 -71.1364 19° North 243 280 4,600 -1,261 Descending Boston Center
Mon 04:06:08 PM 42.1425 -71.1131 20° North 237 273 4,000 -835 Descending Boston Center
Mon 04:07:04 PM 42.2000 -71.0833 21° North 198 228 3,000 -1,034 Descending KA90
Mon 04:08:04 PM 42.2500 -71.0500 26° Northeast 191 220 2,000 -950 Descending KA90
Mon 04:09:04 PM 42.3000 -71.0333 14° North 150 173 1,100 -900 Descending KA90

Login

Don't have an account? Register now (free) for customized features, flight alerts, and more!